createdAt,value
2023-08-21T00:01:03.941Z,19.24
2023-08-21T00:03:31.461Z,19.20
2023-08-21T00:05:58.844Z,19.17
2023-08-21T00:08:26.173Z,19.15
2023-08-21T00:10:53.507Z,19.12
2023-08-21T00:13:20.756Z,19.11
2023-08-21T00:15:48.578Z,19.10
2023-08-21T00:18:16.024Z,19.07
2023-08-21T00:20:44.021Z,19.04
2023-08-21T00:23:11.325Z,19.00
2023-08-21T00:25:38.898Z,18.97
2023-08-21T00:28:06.530Z,18.95
2023-08-21T00:30:33.930Z,18.92
2023-08-21T00:33:01.848Z,18.91
2023-08-21T00:35:29.186Z,18.90
2023-08-21T00:37:56.478Z,18.89
2023-08-21T00:40:23.814Z,18.86
2023-08-21T00:42:51.057Z,18.83
2023-08-21T00:45:18.459Z,18.78
2023-08-21T00:47:45.811Z,18.73
2023-08-21T00:50:13.509Z,18.69
2023-08-21T00:52:41.099Z,18.65
2023-08-21T00:55:09.104Z,18.64
2023-08-21T00:57:37.182Z,18.62
2023-08-21T01:00:05.623Z,18.61
2023-08-21T01:02:32.966Z,18.61
2023-08-21T01:05:00.588Z,18.62
2023-08-21T01:07:27.882Z,18.63
2023-08-21T01:10:31.748Z,18.62
2023-08-21T01:13:07.665Z,18.59
2023-08-21T01:15:35.372Z,18.56
2023-08-21T01:18:02.805Z,18.53
2023-08-21T01:20:30.139Z,18.51
2023-08-21T01:22:57.398Z,18.51
2023-08-21T01:25:25.270Z,18.52
2023-08-21T01:27:52.645Z,18.53
2023-08-21T01:30:20.054Z,18.56
2023-08-21T01:33:12.011Z,18.57
2023-08-21T01:35:39.779Z,18.57
2023-08-21T01:38:07.218Z,18.55
2023-08-21T01:40:34.505Z,18.55
2023-08-21T01:43:01.762Z,18.55
2023-08-21T01:45:29.132Z,18.53
2023-08-21T01:47:56.485Z,18.53
2023-08-21T01:50:23.881Z,18.51
2023-08-21T01:52:51.154Z,18.50
2023-08-21T01:55:18.625Z,18.50
2023-08-21T01:57:46.040Z,18.49
2023-08-21T02:00:14.094Z,18.49
2023-08-21T02:02:44.862Z,18.48
2023-08-21T02:05:12.165Z,18.45
2023-08-21T02:07:40.273Z,18.42
2023-08-21T02:10:08.420Z,18.39
2023-08-21T02:12:38.639Z,18.36
2023-08-21T02:15:08.414Z,18.33
2023-08-21T02:17:36.051Z,18.31
2023-08-21T02:20:03.534Z,18.31
2023-08-21T02:22:30.811Z,18.29
2023-08-21T02:24:58.140Z,18.28
2023-08-21T02:27:25.430Z,18.25
2023-08-21T02:29:52.824Z,18.22
2023-08-21T02:32:20.146Z,18.18
2023-08-21T02:34:47.420Z,18.16
2023-08-21T02:37:16.220Z,18.10
2023-08-21T02:39:43.609Z,18.06
2023-08-21T02:42:10.911Z,18.03
2023-08-21T02:44:38.195Z,18.01
2023-08-21T02:47:05.866Z,17.99
2023-08-21T02:49:33.260Z,17.98
2023-08-21T02:52:00.548Z,17.98
2023-08-21T02:54:27.861Z,17.98
2023-08-21T02:56:55.249Z,17.99
2023-08-21T02:59:22.693Z,17.99
2023-08-21T03:01:49.978Z,17.98
2023-08-21T03:04:17.308Z,17.96
2023-08-21T03:06:44.580Z,17.94
2023-08-21T03:09:11.935Z,17.94
2023-08-21T03:11:39.300Z,17.94
2023-08-21T03:14:06.561Z,17.96
2023-08-21T03:16:34.714Z,17.98
2023-08-21T03:19:02.415Z,18.00
2023-08-21T03:21:30.776Z,18.01
2023-08-21T03:24:01.828Z,18.03
2023-08-21T03:26:31.634Z,18.03
2023-08-21T03:28:58.937Z,18.05
2023-08-21T03:31:26.197Z,18.07
2023-08-21T03:33:53.573Z,18.09
2023-08-21T03:36:21.337Z,18.14
2023-08-21T03:38:48.966Z,18.20
2023-08-21T03:41:16.294Z,18.26
2023-08-21T03:43:43.600Z,18.32
2023-08-21T03:46:10.944Z,18.38
2023-08-21T03:48:38.350Z,18.44
2023-08-21T03:51:05.680Z,18.49
2023-08-21T03:53:33.082Z,18.55
2023-08-21T03:56:01.137Z,18.62
2023-08-21T03:58:28.469Z,18.69
2023-08-21T04:00:55.887Z,18.78
2023-08-21T04:03:23.279Z,18.84
2023-08-21T04:05:50.822Z,18.90
2023-08-21T04:08:18.147Z,18.96
2023-08-21T04:10:45.489Z,19.00
2023-08-21T04:13:12.792Z,19.04
2023-08-21T04:15:46.299Z,19.11
2023-08-21T04:18:14.981Z,19.20
2023-08-21T04:20:46.044Z,19.33
2023-08-21T04:23:13.340Z,19.47
2023-08-21T04:25:40.652Z,19.62
2023-08-21T04:28:08.936Z,19.79
2023-08-21T04:30:36.463Z,19.98
2023-08-21T04:33:04.206Z,20.18
2023-08-21T04:35:31.462Z,20.39
2023-08-21T04:37:58.771Z,20.59
2023-08-21T04:40:26.401Z,20.80
2023-08-21T04:42:53.894Z,21.00
2023-08-21T04:45:22.379Z,21.20
2023-08-21T04:47:49.650Z,21.40
2023-08-21T04:50:17.229Z,21.60
2023-08-21T04:52:44.589Z,21.78
2023-08-21T04:55:11.975Z,21.95
2023-08-21T04:57:39.564Z,22.13
2023-08-21T05:00:08.845Z,22.32
2023-08-21T05:02:39.038Z,22.50
2023-08-21T05:05:07.300Z,22.69
2023-08-21T05:07:35.849Z,22.87
2023-08-21T05:10:03.673Z,23.07
2023-08-21T05:12:32.704Z,23.24
2023-08-21T05:15:00.252Z,23.43
2023-08-21T05:17:28.284Z,23.62
2023-08-21T05:19:55.993Z,23.80
2023-08-21T05:22:23.297Z,23.96
2023-08-21T05:24:52.065Z,24.10
2023-08-21T05:27:19.397Z,24.21
2023-08-21T05:29:46.914Z,24.32
2023-08-21T05:32:14.397Z,24.47
2023-08-21T05:34:42.666Z,24.64
2023-08-21T05:37:09.933Z,24.79
2023-08-21T05:39:37.901Z,24.92
2023-08-21T05:42:05.553Z,25.06
2023-08-21T05:44:32.887Z,25.18
2023-08-21T05:47:00.247Z,25.33
2023-08-21T05:49:27.554Z,25.49
2023-08-21T05:51:54.911Z,25.65
2023-08-21T05:54:22.185Z,25.79
2023-08-21T05:56:49.608Z,25.90
2023-08-21T05:59:28.318Z,25.98
2023-08-21T06:01:56.523Z,26.07
2023-08-21T06:04:25.120Z,26.22
2023-08-21T06:06:58.075Z,26.39
2023-08-21T06:09:25.543Z,26.49
2023-08-21T06:11:52.861Z,26.57
2023-08-21T06:14:20.524Z,26.64
2023-08-21T06:16:48.410Z,26.73
2023-08-21T06:19:15.957Z,26.85
2023-08-21T06:21:43.462Z,27.02
2023-08-21T06:24:10.783Z,27.21
2023-08-21T06:26:38.551Z,27.37
2023-08-21T06:29:05.930Z,27.45
2023-08-21T06:31:33.278Z,27.53
2023-08-21T06:34:00.672Z,27.65
2023-08-21T06:36:28.018Z,27.80
2023-08-21T06:38:56.528Z,27.98
2023-08-21T06:41:26.472Z,28.17
2023-08-21T06:43:53.749Z,28.35
2023-08-21T06:46:21.744Z,28.51
2023-08-21T06:48:51.246Z,28.66
2023-08-21T06:51:18.578Z,28.83
2023-08-21T06:53:46.032Z,28.99
2023-08-21T06:56:13.758Z,29.13
2023-08-21T06:58:41.024Z,29.27
2023-08-21T07:01:08.585Z,29.39
2023-08-21T07:03:35.989Z,29.51
2023-08-21T07:06:03.835Z,29.64
2023-08-21T07:08:31.084Z,29.78
2023-08-21T07:10:58.673Z,29.91
2023-08-21T07:13:26.156Z,30.00
2023-08-21T07:15:54.750Z,30.07
2023-08-21T07:18:22.251Z,30.15
2023-08-21T07:20:49.643Z,30.19
2023-08-21T07:23:17.094Z,30.24
2023-08-21T07:25:44.428Z,30.31
2023-08-21T07:28:12.121Z,30.40
2023-08-21T07:30:39.686Z,30.53
2023-08-21T07:33:07.713Z,30.64
2023-08-21T07:35:35.048Z,30.72
2023-08-21T07:38:02.463Z,30.83
2023-08-21T07:40:29.964Z,30.96
2023-08-21T07:42:57.250Z,31.09
2023-08-21T07:45:24.628Z,31.24
2023-08-21T07:48:04.853Z,31.38
2023-08-21T07:50:39.420Z,31.52
2023-08-21T07:53:06.750Z,31.59
2023-08-21T07:55:34.482Z,31.62
2023-08-21T07:58:01.788Z,31.69
2023-08-21T08:00:29.144Z,31.78
2023-08-21T08:02:56.438Z,31.88
2023-08-21T08:05:23.983Z,32.01
2023-08-21T08:07:51.325Z,32.13
2023-08-21T08:10:19.112Z,32.19
2023-08-21T08:12:46.405Z,32.22
2023-08-21T08:15:14.486Z,32.23
2023-08-21T08:17:42.130Z,32.24
2023-08-21T08:20:10.131Z,32.25
2023-08-21T08:22:37.631Z,32.30
2023-08-21T08:25:07.138Z,32.37
2023-08-21T08:27:34.417Z,32.46
2023-08-21T08:30:01.690Z,32.56
2023-08-21T08:32:29.140Z,32.65
2023-08-21T08:34:56.444Z,32.67
2023-08-21T08:37:23.770Z,32.68
2023-08-21T08:39:51.036Z,32.75
2023-08-21T08:42:18.375Z,32.86
2023-08-21T08:44:45.653Z,32.99
2023-08-21T08:47:12.970Z,33.10
2023-08-21T08:49:40.309Z,33.16
2023-08-21T08:52:08.145Z,33.26
2023-08-21T08:54:36.758Z,33.40
2023-08-21T08:57:04.025Z,33.48
2023-08-21T08:59:32.492Z,33.54
2023-08-21T09:02:00.232Z,33.61
2023-08-21T09:04:31.050Z,33.75
2023-08-21T09:07:11.686Z,33.91
2023-08-21T09:09:42.551Z,33.99
2023-08-21T09:12:14.036Z,34.04
2023-08-21T09:14:42.215Z,34.02
2023-08-21T09:17:09.699Z,34.00
2023-08-21T09:19:37.091Z,34.02
2023-08-21T09:22:19.102Z,33.92
2023-08-21T09:25:06.326Z,33.84
2023-08-21T09:27:35.120Z,33.90
2023-08-21T09:30:05.349Z,34.00
2023-08-21T09:32:36.474Z,34.11
2023-08-21T09:35:04.748Z,34.16
2023-08-21T09:37:32.935Z,34.14
2023-08-21T09:40:02.071Z,34.07
2023-08-21T09:42:29.403Z,34.00
2023-08-21T09:44:56.713Z,33.94
2023-08-21T09:47:24.005Z,33.80
2023-08-21T09:49:51.317Z,33.61
2023-08-21T09:52:18.633Z,33.40
2023-08-21T09:54:45.970Z,33.32
2023-08-21T09:57:13.866Z,33.32
2023-08-21T09:59:43.013Z,33.28
2023-08-21T10:02:10.469Z,33.17
2023-08-21T10:04:38.100Z,33.15
2023-08-21T10:07:05.771Z,33.28
2023-08-21T10:09:33.166Z,33.40
2023-08-21T10:12:00.601Z,33.33
2023-08-21T10:14:27.864Z,33.19
2023-08-21T10:16:55.938Z,33.06
2023-08-21T10:19:23.619Z,32.94
2023-08-21T10:21:51.052Z,32.78
2023-08-21T10:24:48.053Z,32.69
2023-08-21T10:27:15.587Z,32.80
2023-08-21T10:29:42.913Z,32.98
2023-08-21T10:32:11.245Z,33.21
2023-08-21T10:34:39.167Z,33.48
2023-08-21T10:37:14.111Z,33.83
2023-08-21T10:39:55.448Z,34.21
2023-08-21T10:42:38.436Z,34.59
2023-08-21T10:45:15.070Z,34.80
2023-08-21T10:47:42.863Z,34.75
2023-08-21T10:50:11.334Z,34.57
2023-08-21T10:52:48.897Z,34.39
2023-08-21T10:55:16.681Z,34.20
2023-08-21T10:57:44.271Z,33.77
2023-08-21T11:00:15.775Z,33.17
2023-08-21T11:02:47.263Z,32.59
2023-08-21T11:05:15.059Z,32.05
2023-08-21T11:07:46.581Z,31.58
2023-08-21T11:10:19.157Z,31.31
2023-08-21T11:12:57.071Z,31.02
2023-08-21T11:15:29.374Z,30.70
2023-08-21T11:18:01.258Z,30.40
2023-08-21T11:20:32.432Z,30.12
2023-08-21T11:23:00.295Z,29.87
2023-08-21T11:25:28.434Z,29.63
2023-08-21T11:27:55.816Z,29.41
2023-08-21T11:30:24.633Z,29.22
2023-08-21T11:33:24.857Z,29.06
2023-08-21T11:35:54.505Z,28.92
2023-08-21T11:38:22.984Z,28.83
2023-08-21T11:40:59.050Z,28.79
2023-08-21T11:43:42.823Z,28.80
2023-08-21T11:46:15.035Z,28.93
2023-08-21T11:48:42.642Z,29.14
2023-08-21T11:51:10.066Z,29.36
2023-08-21T11:53:41.833Z,29.57
2023-08-21T11:56:14.526Z,29.81
2023-08-21T11:58:42.710Z,30.04
2023-08-21T12:01:11.018Z,30.23
2023-08-21T12:03:39.881Z,30.29
2023-08-21T12:06:11.843Z,30.28
2023-08-21T12:08:39.729Z,30.31
2023-08-21T12:11:07.616Z,30.41
2023-08-21T12:13:36.262Z,30.51
2023-08-21T12:16:05.176Z,30.61
2023-08-21T12:18:32.657Z,30.73
2023-08-21T12:21:00.065Z,30.96
2023-08-21T12:23:27.473Z,31.13
2023-08-21T12:25:54.790Z,31.23
2023-08-21T12:28:22.036Z,31.30
2023-08-21T12:30:49.272Z,31.40
2023-08-21T12:33:23.382Z,31.51
2023-08-21T12:35:52.184Z,31.56
2023-08-21T12:38:19.852Z,31.49
2023-08-21T12:40:47.140Z,31.37
2023-08-21T12:43:14.460Z,31.29
2023-08-21T12:45:41.774Z,31.28
2023-08-21T12:48:09.502Z,31.27
2023-08-21T12:50:36.966Z,31.27
2023-08-21T12:53:04.638Z,31.29
2023-08-21T12:55:33.017Z,31.34
2023-08-21T12:58:00.984Z,31.42
2023-08-21T13:00:28.414Z,31.50
2023-08-21T13:02:55.844Z,31.61
2023-08-21T13:05:23.255Z,31.70
2023-08-21T13:07:50.488Z,31.78
2023-08-21T13:10:17.758Z,31.86
2023-08-21T13:12:45.282Z,31.93
2023-08-21T13:15:14.643Z,32.03
2023-08-21T13:17:45.183Z,32.17
2023-08-21T13:20:12.565Z,32.32
2023-08-21T13:22:47.355Z,32.40
2023-08-21T13:25:15.428Z,32.48
2023-08-21T13:27:43.505Z,32.55
2023-08-21T13:30:11.465Z,32.63
2023-08-21T13:32:38.783Z,32.72
2023-08-21T13:35:09.461Z,32.74
2023-08-21T13:37:40.239Z,32.71
2023-08-21T13:40:16.181Z,32.70
2023-08-21T13:42:44.653Z,32.71
2023-08-21T13:45:13.718Z,32.75
2023-08-21T13:47:42.683Z,32.83
2023-08-21T13:50:10.829Z,32.87
2023-08-21T13:52:40.739Z,32.91
2023-08-21T13:55:09.221Z,32.97
2023-08-21T13:57:37.280Z,33.03
2023-08-21T14:00:08.546Z,33.10
2023-08-21T14:02:35.952Z,33.22
2023-08-21T14:05:05.700Z,33.34
2023-08-21T14:07:33.478Z,33.42
2023-08-21T14:10:00.929Z,33.42
2023-08-21T14:12:32.099Z,33.44
2023-08-21T14:15:00.282Z,33.50
2023-08-21T14:17:28.808Z,33.60
2023-08-21T14:19:56.435Z,33.64
2023-08-21T14:22:23.997Z,33.70
2023-08-21T14:24:51.326Z,33.73
2023-08-21T14:27:18.666Z,33.71
2023-08-21T14:29:46.048Z,33.69
2023-08-21T14:32:14.189Z,33.67
2023-08-21T14:34:41.486Z,33.68
2023-08-21T14:37:08.845Z,33.73
2023-08-21T14:39:38.870Z,33.85
2023-08-21T14:42:06.586Z,33.99
2023-08-21T14:44:34.015Z,34.09
2023-08-21T14:47:03.590Z,34.19
2023-08-21T14:49:32.966Z,34.27
2023-08-21T14:52:00.242Z,34.13
2023-08-21T14:54:27.559Z,33.89
2023-08-21T14:56:54.858Z,33.59
2023-08-21T14:59:22.215Z,33.24
2023-08-21T15:01:49.635Z,32.91
2023-08-21T15:04:17.093Z,32.63
2023-08-21T15:06:44.408Z,32.36
2023-08-21T15:09:11.673Z,32.07
2023-08-21T15:11:39.029Z,31.93
2023-08-21T15:14:10.718Z,32.03
2023-08-21T15:16:38.461Z,32.30
2023-08-21T15:19:05.885Z,32.58
2023-08-21T15:21:33.289Z,32.86
2023-08-21T15:24:02.499Z,33.12
2023-08-21T15:26:31.202Z,33.31
2023-08-21T15:28:58.481Z,33.42
2023-08-21T15:31:26.019Z,33.36
2023-08-21T15:33:53.446Z,33.16
2023-08-21T15:36:20.763Z,32.85
2023-08-21T15:38:48.067Z,32.53
2023-08-21T15:41:15.783Z,32.22
2023-08-21T15:43:43.277Z,31.90
2023-08-21T15:46:10.629Z,31.60
2023-08-21T15:48:38.097Z,31.34
2023-08-21T15:51:05.403Z,31.11
2023-08-21T15:53:32.793Z,30.92
2023-08-21T15:56:00.098Z,30.74
2023-08-21T15:58:27.345Z,30.55
2023-08-21T16:00:54.724Z,30.34
2023-08-21T16:03:22.093Z,30.16
2023-08-21T16:05:49.401Z,29.99
2023-08-21T16:08:16.675Z,29.80
2023-08-21T16:10:44.194Z,29.62
2023-08-21T16:13:13.175Z,29.44
2023-08-21T16:15:42.174Z,29.25
2023-08-21T16:18:11.179Z,29.08
2023-08-21T16:20:38.913Z,28.91
2023-08-21T16:23:07.818Z,28.76
2023-08-21T16:25:35.370Z,28.61
2023-08-21T16:28:03.478Z,28.45
2023-08-21T16:30:30.831Z,28.29
2023-08-21T16:32:58.690Z,28.14
2023-08-21T16:35:26.460Z,27.98
2023-08-21T16:37:53.820Z,27.81
2023-08-21T16:40:24.266Z,27.64
2023-08-21T16:42:52.203Z,27.46
2023-08-21T16:45:19.527Z,27.29
2023-08-21T16:47:47.835Z,27.12
2023-08-21T16:50:15.400Z,26.96
2023-08-21T16:52:42.664Z,26.81
2023-08-21T16:55:10.452Z,26.65
2023-08-21T16:57:37.755Z,26.51
2023-08-21T17:00:10.808Z,26.38
2023-08-21T17:02:39.586Z,26.23
2023-08-21T17:05:08.013Z,26.10
2023-08-21T17:07:39.040Z,25.97
2023-08-21T17:10:08.278Z,25.84
2023-08-21T17:12:35.617Z,25.69
2023-08-21T17:15:04.869Z,25.54
2023-08-21T17:17:32.561Z,25.40
2023-08-21T17:20:00.097Z,25.29
2023-08-21T17:22:27.443Z,25.18
2023-08-21T17:25:04.667Z,25.09
2023-08-21T17:27:41.832Z,24.99
2023-08-21T17:30:11.018Z,24.90
2023-08-21T17:32:38.729Z,24.80
2023-08-21T17:35:07.411Z,24.70
2023-08-21T17:37:34.714Z,24.57
2023-08-21T17:40:03.170Z,24.45
2023-08-21T17:42:30.472Z,24.33
2023-08-21T17:44:57.949Z,24.22
2023-08-21T17:47:25.308Z,24.13
2023-08-21T17:49:52.743Z,24.04
2023-08-21T17:52:20.091Z,23.95
2023-08-21T17:54:48.099Z,23.87
2023-08-21T17:57:15.389Z,23.79
2023-08-21T17:59:42.892Z,23.68
2023-08-21T18:02:15.626Z,23.59
2023-08-21T18:04:53.417Z,23.51
2023-08-21T18:07:21.157Z,23.45
2023-08-21T18:09:48.533Z,23.38
2023-08-21T18:12:15.935Z,23.31
2023-08-21T18:14:43.392Z,23.24
2023-08-21T18:17:14.847Z,23.19
2023-08-21T18:19:47.568Z,23.12
2023-08-21T18:22:15.796Z,23.05
2023-08-21T18:24:43.633Z,22.99
2023-08-21T18:27:11.195Z,22.92
2023-08-21T18:29:41.119Z,22.83
2023-08-21T18:32:10.056Z,22.73
2023-08-21T18:34:39.278Z,22.66
2023-08-21T18:37:09.985Z,22.59
2023-08-21T18:39:37.567Z,22.51
2023-08-21T18:42:05.293Z,22.45
2023-08-21T18:44:32.778Z,22.40
2023-08-21T18:47:00.170Z,22.33
2023-08-21T18:49:27.512Z,22.27
2023-08-21T18:51:55.139Z,22.20
2023-08-21T18:54:24.878Z,22.13
2023-08-21T18:56:52.797Z,22.09
2023-08-21T18:59:20.244Z,22.06
2023-08-21T19:01:47.662Z,22.03
2023-08-21T19:04:15.122Z,21.98
2023-08-21T19:06:51.881Z,21.92
2023-08-21T19:09:27.814Z,21.86
2023-08-21T19:11:55.126Z,21.82
2023-08-21T19:14:22.501Z,21.80
2023-08-21T19:16:55.060Z,21.78
2023-08-21T19:19:23.410Z,21.77
2023-08-21T19:21:50.982Z,21.76
2023-08-21T19:24:18.305Z,21.76
2023-08-21T19:26:45.599Z,21.73
2023-08-21T19:29:12.964Z,21.69
2023-08-21T19:31:40.338Z,21.65
2023-08-21T19:34:07.822Z,21.59
2023-08-21T19:36:35.077Z,21.54
2023-08-21T19:39:02.404Z,21.50
2023-08-21T19:41:29.643Z,21.46
2023-08-21T19:43:57.031Z,21.40
2023-08-21T19:46:24.367Z,21.34
2023-08-21T19:48:52.008Z,21.29
2023-08-21T19:51:19.325Z,21.23
2023-08-21T19:53:46.859Z,21.18
2023-08-21T19:56:14.235Z,21.14
2023-08-21T19:58:41.482Z,21.10
2023-08-21T20:01:09.446Z,21.07
2023-08-21T20:03:37.628Z,21.05
2023-08-21T20:06:05.373Z,21.02
2023-08-21T20:08:32.702Z,20.99
2023-08-21T20:11:00.179Z,20.93
2023-08-21T20:13:27.847Z,20.87
2023-08-21T20:15:56.402Z,20.82
2023-08-21T20:18:24.098Z,20.78
2023-08-21T20:20:51.612Z,20.74
2023-08-21T20:23:18.930Z,20.72
2023-08-21T20:25:46.894Z,20.70
2023-08-21T20:28:14.227Z,20.67
2023-08-21T20:30:41.614Z,20.65
2023-08-21T20:33:08.946Z,20.61
2023-08-21T20:35:36.412Z,20.57
2023-08-21T20:38:04.306Z,20.55
2023-08-21T20:40:31.642Z,20.53
2023-08-21T20:42:58.961Z,20.52
2023-08-21T20:45:28.249Z,20.51
2023-08-21T20:47:55.929Z,20.52
2023-08-21T20:50:23.361Z,20.55
2023-08-21T20:52:50.703Z,20.57
2023-08-21T20:55:18.641Z,20.60
2023-08-21T20:57:48.172Z,20.62
2023-08-21T21:00:16.818Z,20.64
2023-08-21T21:02:44.115Z,20.64
2023-08-21T21:05:12.076Z,20.64
2023-08-21T21:07:40.335Z,20.64
2023-08-21T21:10:08.799Z,20.65
2023-08-21T21:12:36.071Z,20.67
2023-08-21T21:15:04.874Z,20.71
2023-08-21T21:17:32.600Z,20.74
2023-08-21T21:19:59.967Z,20.76
2023-08-21T21:22:27.230Z,20.77
2023-08-21T21:24:54.534Z,20.78
2023-08-21T21:27:21.809Z,20.79
2023-08-21T21:29:49.062Z,20.80
2023-08-21T21:32:17.357Z,20.81
2023-08-21T21:34:44.875Z,20.82
2023-08-21T21:37:12.371Z,20.80
2023-08-21T21:39:39.720Z,20.78
2023-08-21T21:42:07.521Z,20.76
2023-08-21T21:44:35.268Z,20.74
2023-08-21T21:47:02.550Z,20.68
2023-08-21T21:49:29.835Z,20.62
2023-08-21T21:51:57.163Z,20.56
2023-08-21T21:54:24.572Z,20.52
2023-08-21T21:56:52.867Z,20.51
2023-08-21T21:59:20.120Z,20.51
2023-08-21T22:01:47.548Z,20.52
2023-08-21T22:04:14.955Z,20.55
2023-08-21T22:06:43.293Z,20.57
2023-08-21T22:09:10.640Z,20.60
2023-08-21T22:11:37.898Z,20.62
2023-08-21T22:14:06.212Z,20.64
2023-08-21T22:16:34.220Z,20.66
2023-08-21T22:19:01.663Z,20.67
2023-08-21T22:21:29.061Z,20.69
2023-08-21T22:23:56.365Z,20.69
2023-08-21T22:26:23.696Z,20.68
2023-08-21T22:28:51.031Z,20.69
2023-08-21T22:31:22.222Z,20.70
2023-08-21T22:33:52.684Z,20.70
2023-08-21T22:36:20.089Z,20.70
2023-08-21T22:38:47.339Z,20.69
2023-08-21T22:41:14.782Z,20.71
2023-08-21T22:43:42.072Z,20.74
2023-08-21T22:46:09.462Z,20.77
2023-08-21T22:48:36.865Z,20.78
2023-08-21T22:51:05.975Z,20.78
2023-08-21T22:53:33.224Z,20.76
2023-08-21T22:56:01.370Z,20.74
2023-08-21T22:58:28.641Z,20.71
2023-08-21T23:00:59.296Z,20.68
2023-08-21T23:03:26.802Z,20.64
2023-08-21T23:05:55.156Z,20.60
2023-08-21T23:08:25.781Z,20.59
2023-08-21T23:10:53.126Z,20.60
2023-08-21T23:13:20.546Z,20.62
2023-08-21T23:15:48.980Z,20.64
2023-08-21T23:18:17.050Z,20.66
2023-08-21T23:20:44.974Z,20.68
2023-08-21T23:23:12.360Z,20.72
2023-08-21T23:25:39.642Z,20.73
2023-08-21T23:28:07.345Z,20.73
2023-08-21T23:30:37.205Z,20.71
2023-08-21T23:33:04.769Z,20.71
2023-08-21T23:35:32.134Z,20.70
2023-08-21T23:37:59.395Z,20.69
2023-08-21T23:40:26.698Z,20.68
2023-08-21T23:42:54.995Z,20.66
2023-08-21T23:45:22.346Z,20.63
2023-08-21T23:47:49.843Z,20.60
2023-08-21T23:50:17.380Z,20.56
2023-08-21T23:52:44.755Z,20.54
2023-08-21T23:55:12.026Z,20.53
2023-08-21T23:57:39.480Z,20.55
